createdAt,value
2018-07-20T00:00:59.333Z,18.51
2018-07-20T00:03:29.098Z,18.43
2018-07-20T00:05:58.733Z,18.41
2018-07-20T00:08:28.168Z,18.40
2018-07-20T00:10:57.776Z,18.33
2018-07-20T00:13:27.296Z,18.27
2018-07-20T00:15:56.677Z,18.32
2018-07-20T00:18:26.394Z,18.25
2018-07-20T00:20:55.857Z,18.26
2018-07-20T00:23:25.365Z,18.22
2018-07-20T00:25:55.067Z,18.20
2018-07-20T00:28:24.492Z,18.16
2018-07-20T00:30:53.992Z,18.16
2018-07-20T00:33:25.337Z,18.13
2018-07-20T00:35:54.855Z,18.11
2018-07-20T00:38:24.568Z,18.17
2018-07-20T00:40:53.973Z,18.19
2018-07-20T00:43:23.469Z,18.13
2018-07-20T00:45:52.897Z,18.13
2018-07-20T00:48:22.296Z,18.13
2018-07-20T00:50:51.969Z,18.17
2018-07-20T00:53:21.286Z,17.47
2018-07-20T00:55:50.810Z,18.04
2018-07-20T00:58:20.535Z,18.03
2018-07-20T01:00:50.078Z,18.00
2018-07-20T01:03:19.276Z,17.96
2018-07-20T01:05:49.363Z,17.94
2018-07-20T01:08:18.699Z,17.89
2018-07-20T01:10:48.116Z,17.89
2018-07-20T01:13:17.613Z,17.88
2018-07-20T01:15:47.228Z,17.82
2018-07-20T01:18:16.692Z,17.78
2018-07-20T01:20:46.344Z,17.76
2018-07-20T01:23:15.892Z,17.82
2018-07-20T01:25:45.066Z,17.75
2018-07-20T01:28:14.821Z,17.75
2018-07-20T01:30:44.511Z,17.75
2018-07-20T01:33:13.987Z,17.76
2018-07-20T01:35:43.588Z,17.77
2018-07-20T01:38:13.458Z,17.83
2018-07-20T01:40:42.977Z,17.82
2018-07-20T01:43:12.213Z,17.74
2018-07-20T01:45:41.771Z,17.75
2018-07-20T01:48:11.278Z,17.69
2018-07-20T01:50:40.403Z,17.68
2018-07-20T01:53:10.060Z,17.78
2018-07-20T01:55:39.853Z,17.83
2018-07-20T01:58:09.242Z,17.89
2018-07-20T02:00:38.541Z,17.95
2018-07-20T02:03:08.257Z,17.92
2018-07-20T02:05:37.623Z,17.79
2018-07-20T02:08:07.200Z,17.77
2018-07-20T02:10:36.649Z,17.67
2018-07-20T02:13:05.817Z,17.59
2018-07-20T02:15:35.496Z,17.52
2018-07-20T02:18:05.582Z,17.51
2018-07-20T02:20:34.913Z,17.50
2018-07-20T02:23:04.517Z,17.48
2018-07-20T02:25:34.252Z,17.41
2018-07-20T02:28:03.592Z,17.46
2018-07-20T02:30:33.176Z,17.46
2018-07-20T02:33:02.937Z,17.41
2018-07-20T02:35:32.417Z,17.42
2018-07-20T02:38:01.845Z,17.41
2018-07-20T02:40:31.509Z,17.35
2018-07-20T02:43:01.009Z,17.34
2018-07-20T02:45:30.564Z,17.34
2018-07-20T02:47:59.943Z,17.32
2018-07-20T02:50:29.268Z,17.22
2018-07-20T02:52:58.930Z,17.16
2018-07-20T02:55:28.371Z,17.21
2018-07-20T02:57:58.000Z,17.20
2018-07-20T03:00:27.739Z,17.21
2018-07-20T03:02:57.091Z,17.16
2018-07-20T03:05:26.628Z,17.13
2018-07-20T03:07:56.073Z,16.96
2018-07-20T03:10:25.413Z,17.11
2018-07-20T03:12:55.221Z,17.09
2018-07-20T03:15:24.947Z,17.11
2018-07-20T03:17:54.594Z,17.13
2018-07-20T03:20:23.930Z,17.10
2018-07-20T03:22:53.488Z,17.12
2018-07-20T03:25:22.911Z,17.07
2018-07-20T03:27:52.151Z,17.10
2018-07-20T03:30:22.040Z,17.06
2018-07-20T03:32:52.311Z,17.10
2018-07-20T03:35:21.860Z,17.16
2018-07-20T03:37:51.370Z,17.24
2018-07-20T03:40:20.689Z,17.22
2018-07-20T03:42:50.233Z,17.18
2018-07-20T03:45:20.011Z,17.21
2018-07-20T03:47:49.291Z,17.20
2018-07-20T03:50:18.742Z,17.20
2018-07-20T03:52:48.286Z,17.27
2018-07-20T03:55:17.587Z,17.27
2018-07-20T03:57:47.107Z,17.26
2018-07-20T04:00:16.686Z,17.28
2018-07-20T04:02:46.113Z,17.29
2018-07-20T04:05:15.849Z,17.31
2018-07-20T04:07:45.399Z,17.33
2018-07-20T04:10:14.737Z,17.33
2018-07-20T04:12:44.319Z,17.32
2018-07-20T04:15:14.044Z,17.34
2018-07-20T04:17:44.627Z,17.41
2018-07-20T04:20:15.677Z,17.47
2018-07-20T04:22:45.214Z,17.49
2018-07-20T04:25:14.681Z,17.53
2018-07-20T04:27:44.100Z,17.47
2018-07-20T04:30:15.558Z,17.49
2018-07-20T04:32:45.190Z,17.59
2018-07-20T04:35:14.796Z,17.62
2018-07-20T04:37:44.001Z,17.64
2018-07-20T04:40:13.632Z,17.69
2018-07-20T04:42:43.009Z,17.76
2018-07-20T04:45:12.648Z,17.81
2018-07-20T04:47:42.228Z,17.87
2018-07-20T04:50:11.720Z,17.91
2018-07-20T04:52:41.014Z,17.98
2018-07-20T04:55:10.859Z,18.01
2018-07-20T04:57:40.527Z,18.10
2018-07-20T05:00:09.970Z,18.19
2018-07-20T05:02:39.671Z,18.21
2018-07-20T05:05:09.413Z,18.22
2018-07-20T05:07:38.999Z,18.23
2018-07-20T05:10:08.541Z,18.25
2018-07-20T05:12:38.239Z,18.35
2018-07-20T05:15:07.702Z,18.44
2018-07-20T05:17:37.406Z,18.44
2018-07-20T05:20:07.005Z,18.44
2018-07-20T05:22:36.428Z,18.44
2018-07-20T05:25:05.917Z,18.42
2018-07-20T05:27:35.567Z,18.38
2018-07-20T05:30:05.510Z,18.46
2018-07-20T05:32:34.853Z,18.54
2018-07-20T05:35:05.248Z,18.59
2018-07-20T05:37:35.047Z,18.59
2018-07-20T05:40:05.491Z,18.61
2018-07-20T05:42:35.408Z,18.63
2018-07-20T05:45:05.442Z,18.64
2018-07-20T05:47:35.120Z,18.67
2018-07-20T05:50:05.808Z,18.71
2018-07-20T05:52:35.328Z,18.77
2018-07-20T05:55:04.602Z,18.75
2018-07-20T05:57:34.280Z,18.72
2018-07-20T06:00:03.683Z,18.78
2018-07-20T06:02:33.000Z,18.89
2018-07-20T06:05:02.469Z,18.96
2018-07-20T06:07:31.746Z,19.00
2018-07-20T06:10:01.071Z,18.95
2018-07-20T06:12:30.766Z,18.39
2018-07-20T06:15:00.281Z,19.07
2018-07-20T06:17:29.749Z,19.16
2018-07-20T06:19:59.093Z,19.23
2018-07-20T06:22:28.365Z,19.24
2018-07-20T06:24:57.458Z,19.18
2018-07-20T06:27:26.682Z,19.11
2018-07-20T06:29:56.106Z,19.11
2018-07-20T06:32:25.153Z,19.12
2018-07-20T06:34:54.261Z,19.25
2018-07-20T06:37:23.681Z,19.29
2018-07-20T06:39:52.786Z,19.29
2018-07-20T06:42:22.178Z,19.29
2018-07-20T06:44:51.464Z,19.32
2018-07-20T06:47:20.547Z,19.37
2018-07-20T06:49:49.820Z,19.41
2018-07-20T06:52:19.409Z,19.29
2018-07-20T06:54:48.473Z,19.51
2018-07-20T06:57:17.502Z,19.49
2018-07-20T06:59:47.361Z,19.52
2018-07-20T07:02:16.938Z,19.58
2018-07-20T07:04:46.291Z,19.71
2018-07-20T07:07:16.080Z,19.73
2018-07-20T07:09:45.552Z,19.76
2018-07-20T07:12:15.437Z,19.71
2018-07-20T07:14:47.079Z,19.77
2018-07-20T07:17:16.757Z,19.81
2018-07-20T07:19:46.580Z,19.85
2018-07-20T07:22:17.027Z,19.94
2018-07-20T07:24:46.914Z,17.97
2018-07-20T07:27:16.980Z,19.89
2018-07-20T07:29:46.456Z,20.02
2018-07-20T07:32:16.284Z,19.99
2018-07-20T07:34:45.709Z,20.00
2018-07-20T07:37:15.315Z,19.97
2018-07-20T07:39:45.534Z,20.03
2018-07-20T07:42:15.046Z,20.15
2018-07-20T07:44:44.415Z,20.23
2018-07-20T07:47:14.045Z,21.06
2018-07-20T07:49:43.489Z,22.58
2018-07-20T07:52:13.149Z,23.16
2018-07-20T07:54:42.777Z,23.64
2018-07-20T07:57:12.221Z,23.78
2018-07-20T07:59:41.767Z,24.32
2018-07-20T08:02:11.650Z,24.57
2018-07-20T08:04:41.110Z,24.38
2018-07-20T08:07:10.799Z,24.48
2018-07-20T08:09:40.265Z,24.85
2018-07-20T08:12:09.390Z,24.70
2018-07-20T08:14:38.885Z,24.36
2018-07-20T08:17:08.305Z,24.02
2018-07-20T08:19:37.698Z,23.28
2018-07-20T08:22:07.106Z,22.99
2018-07-20T08:24:36.706Z,22.73
2018-07-20T08:27:06.126Z,22.64
2018-07-20T08:29:35.786Z,22.56
2018-07-20T08:32:05.340Z,22.73
2018-07-20T08:34:34.758Z,22.79
2018-07-20T08:37:04.426Z,22.75
2018-07-20T08:39:34.026Z,22.82
2018-07-20T08:42:03.577Z,22.78
2018-07-20T08:44:33.186Z,23.02
2018-07-20T08:47:02.869Z,23.00
2018-07-20T08:49:32.172Z,22.78
2018-07-20T08:52:01.691Z,22.69
2018-07-20T08:54:31.590Z,22.60
2018-07-20T08:57:01.149Z,22.72
2018-07-20T08:59:30.599Z,22.98
2018-07-20T09:02:00.309Z,22.75
2018-07-20T09:04:29.723Z,22.84
2018-07-20T09:06:59.468Z,22.77
2018-07-20T09:09:29.361Z,22.93
2018-07-20T09:11:58.961Z,23.05
2018-07-20T09:14:28.706Z,23.17
2018-07-20T09:16:58.387Z,23.14
2018-07-20T09:19:28.046Z,23.17
2018-07-20T09:21:57.789Z,23.22
2018-07-20T09:24:27.456Z,22.97
2018-07-20T09:26:56.928Z,23.01
2018-07-20T09:29:26.689Z,23.15
2018-07-20T09:31:56.684Z,23.19
2018-07-20T09:34:28.109Z,23.28
2018-07-20T09:36:59.205Z,23.36
2018-07-20T09:39:29.154Z,23.45
2018-07-20T09:41:58.644Z,23.19
2018-07-20T09:44:28.362Z,23.18
2018-07-20T09:46:57.918Z,23.20
2018-07-20T09:49:27.241Z,23.06
2018-07-20T09:51:57.025Z,23.10
2018-07-20T09:54:26.816Z,22.66
2018-07-20T09:56:57.411Z,22.84
2018-07-20T09:59:27.131Z,23.07
2018-07-20T10:01:56.513Z,23.08
2018-07-20T10:04:25.929Z,23.17
2018-07-20T10:06:55.810Z,23.25
2018-07-20T10:09:25.111Z,23.13
2018-07-20T10:11:54.744Z,23.05
2018-07-20T10:14:24.622Z,23.18
2018-07-20T10:16:54.126Z,23.04
2018-07-20T10:19:23.347Z,22.99
2018-07-20T10:21:53.418Z,23.15
2018-07-20T10:24:22.590Z,23.25
2018-07-20T10:26:52.159Z,23.19
2018-07-20T10:29:21.573Z,23.26
2018-07-20T10:31:51.050Z,23.36
2018-07-20T10:34:20.684Z,23.54
2018-07-20T10:36:50.204Z,23.46
2018-07-20T10:39:22.130Z,23.56
2018-07-20T10:41:52.331Z,23.37
2018-07-20T10:44:21.592Z,23.52
2018-07-20T10:46:51.127Z,23.64
2018-07-20T10:49:20.946Z,23.52
2018-07-20T10:51:50.183Z,23.26
2018-07-20T10:54:19.661Z,23.26
2018-07-20T10:56:49.172Z,23.19
2018-07-20T10:59:18.424Z,23.27
2018-07-20T11:01:47.836Z,23.26
2018-07-20T11:04:17.791Z,23.28
2018-07-20T11:06:47.190Z,23.40
2018-07-20T11:09:16.517Z,23.25
2018-07-20T11:11:46.193Z,23.28
2018-07-20T11:14:15.808Z,23.02
2018-07-20T11:16:45.273Z,23.00
2018-07-20T11:19:15.067Z,22.90
2018-07-20T11:21:44.464Z,23.01
2018-07-20T11:24:13.925Z,23.07
2018-07-20T11:26:43.695Z,22.90
2018-07-20T11:29:13.239Z,22.82
2018-07-20T11:31:42.474Z,22.97
2018-07-20T11:34:11.979Z,23.22
2018-07-20T11:36:41.735Z,23.26
2018-07-20T11:39:11.307Z,23.34
2018-07-20T11:41:40.653Z,23.17
2018-07-20T11:44:10.031Z,23.10
2018-07-20T11:46:39.313Z,23.13
2018-07-20T11:49:08.766Z,23.19
2018-07-20T11:51:38.263Z,23.24
2018-07-20T11:54:07.598Z,23.47
2018-07-20T11:56:37.299Z,23.63
2018-07-20T11:59:07.019Z,23.40
2018-07-20T12:01:36.508Z,23.54
2018-07-20T12:04:06.425Z,23.51
2018-07-20T12:06:36.128Z,23.60
2018-07-20T12:09:08.509Z,23.68
2018-07-20T12:11:38.050Z,23.92
2018-07-20T12:14:07.448Z,24.00
2018-07-20T12:16:37.157Z,23.78
2018-07-20T12:19:06.672Z,23.92
2018-07-20T12:21:36.677Z,23.83
2018-07-20T12:24:06.250Z,23.72
2018-07-20T12:26:35.773Z,23.86
2018-07-20T12:29:05.088Z,23.98
2018-07-20T12:31:34.936Z,23.94
2018-07-20T12:34:04.418Z,24.06
2018-07-20T12:36:34.151Z,24.17
2018-07-20T12:39:03.898Z,24.03
2018-07-20T12:41:33.552Z,23.94
2018-07-20T12:44:02.610Z,23.99
2018-07-20T12:46:32.194Z,23.99
2018-07-20T12:49:01.634Z,23.87
2018-07-20T12:51:30.815Z,23.76
2018-07-20T12:54:00.515Z,23.83
2018-07-20T12:56:30.187Z,23.55
2018-07-20T12:58:59.616Z,23.83
2018-07-20T13:01:29.235Z,23.93
2018-07-20T13:03:58.873Z,23.71
2018-07-20T13:06:28.364Z,23.42
2018-07-20T13:08:57.662Z,23.28
2018-07-20T13:11:27.131Z,23.08
2018-07-20T13:13:56.500Z,23.39
2018-07-20T13:16:25.956Z,23.84
2018-07-20T13:18:55.459Z,23.89
2018-07-20T13:21:24.560Z,23.89
2018-07-20T13:23:54.126Z,23.81
2018-07-20T13:26:23.756Z,23.39
2018-07-20T13:28:53.181Z,23.64
2018-07-20T13:31:22.551Z,23.49
2018-07-20T13:33:52.322Z,23.25
2018-07-20T13:36:22.042Z,23.89
2018-07-20T13:38:51.559Z,23.97
2018-07-20T13:41:21.177Z,23.87
2018-07-20T13:43:50.954Z,23.67
2018-07-20T13:46:20.737Z,23.74
2018-07-20T13:48:50.493Z,23.93
2018-07-20T13:51:20.242Z,24.06
2018-07-20T13:53:50.099Z,23.95
2018-07-20T13:56:19.713Z,23.96
2018-07-20T13:58:49.150Z,24.18
2018-07-20T14:04:12.297Z,23.74
2018-07-20T14:06:41.828Z,23.46
2018-07-20T14:09:12.025Z,23.80
2018-07-20T14:11:41.696Z,24.09
2018-07-20T14:14:11.344Z,24.23
2018-07-20T14:16:40.735Z,23.67
2018-07-20T14:19:10.605Z,24.02
2018-07-20T14:21:40.288Z,24.30
2018-07-20T14:24:09.845Z,24.00
2018-07-20T14:26:39.454Z,23.81
2018-07-20T14:29:08.655Z,23.92
2018-07-20T14:31:38.201Z,23.52
2018-07-20T14:34:07.720Z,22.31
2018-07-20T14:36:37.171Z,23.96
2018-07-20T14:39:09.846Z,23.88
2018-07-20T14:41:39.165Z,23.99
2018-07-20T14:44:08.441Z,23.72
2018-07-20T14:46:38.343Z,23.91
2018-07-20T14:49:07.764Z,23.80
2018-07-20T14:51:36.944Z,23.79
2018-07-20T14:54:06.809Z,23.78
2018-07-20T14:56:36.205Z,23.75
2018-07-20T14:59:05.885Z,23.75
2018-07-20T15:01:35.621Z,23.54
2018-07-20T15:04:04.978Z,23.84
2018-07-20T15:06:34.237Z,24.08
2018-07-20T15:09:04.178Z,24.20
2018-07-20T15:11:33.513Z,24.05
2018-07-20T15:14:02.885Z,23.69
2018-07-20T15:16:32.813Z,23.82
2018-07-20T15:19:02.227Z,23.53
2018-07-20T15:21:31.659Z,23.65
2018-07-20T15:24:01.950Z,23.95
2018-07-20T15:26:31.349Z,23.80
2018-07-20T15:29:00.754Z,23.35
2018-07-20T15:31:30.496Z,23.41
2018-07-20T15:33:59.907Z,23.61
2018-07-20T15:36:29.284Z,23.42
2018-07-20T15:38:59.092Z,23.32
2018-07-20T15:41:28.450Z,23.56
2018-07-20T15:43:57.669Z,23.71
2018-07-20T15:46:27.647Z,23.52
2018-07-20T15:48:57.072Z,23.27
2018-07-20T15:51:55.484Z,23.27
2018-07-20T15:53:56.439Z,23.10
2018-07-20T15:56:25.910Z,23.23
2018-07-20T15:58:55.544Z,23.24
2018-07-20T16:01:25.138Z,23.10
2018-07-20T16:03:54.653Z,23.07
2018-07-20T16:06:24.295Z,22.90
2018-07-20T16:08:53.689Z,23.10
2018-07-20T16:11:23.001Z,23.13
2018-07-20T16:13:52.741Z,22.81
2018-07-20T16:16:22.577Z,22.80
2018-07-20T16:18:51.870Z,22.83
2018-07-20T16:21:21.661Z,22.99
2018-07-20T16:23:51.370Z,22.98
2018-07-20T16:26:21.210Z,23.06
2018-07-20T16:28:50.667Z,23.00
2018-07-20T16:31:20.344Z,22.89
2018-07-20T16:33:50.018Z,22.66
2018-07-20T16:36:19.440Z,22.55
2018-07-20T16:38:48.907Z,22.51
2018-07-20T16:41:18.828Z,22.44
2018-07-20T16:43:48.091Z,22.49
2018-07-20T16:46:17.904Z,22.63
2018-07-20T16:48:47.652Z,22.66
2018-07-20T16:51:17.105Z,22.58
2018-07-20T16:53:46.690Z,22.42
2018-07-20T16:56:16.282Z,22.43
2018-07-20T16:58:45.718Z,22.52
2018-07-20T17:01:15.381Z,22.42
2018-07-20T17:03:45.283Z,22.27
2018-07-20T17:06:14.559Z,22.20
2018-07-20T17:08:44.210Z,21.93
2018-07-20T17:11:13.665Z,21.95
2018-07-20T17:13:42.896Z,21.93
2018-07-20T17:16:12.647Z,21.86
2018-07-20T17:18:42.511Z,21.88
2018-07-20T17:21:11.971Z,21.83
2018-07-20T17:23:41.764Z,21.77
2018-07-20T17:26:11.252Z,21.82
2018-07-20T17:28:40.773Z,21.80
2018-07-20T17:31:10.388Z,21.79
2018-07-20T17:33:39.996Z,21.83
2018-07-20T17:36:09.331Z,21.67
2018-07-20T17:38:38.868Z,21.58
2018-07-20T17:41:08.453Z,21.54
2018-07-20T17:43:38.242Z,21.50
2018-07-20T17:46:08.017Z,21.47
2018-07-20T17:48:37.725Z,21.56
2018-07-20T17:51:07.120Z,21.48
2018-07-20T17:53:36.884Z,21.45
2018-07-20T17:56:06.402Z,21.56
2018-07-20T17:58:35.888Z,21.46
2018-07-20T18:01:05.499Z,21.22
2018-07-20T18:03:34.982Z,21.20
2018-07-20T18:06:04.493Z,21.22
2018-07-20T18:08:33.866Z,21.25
2018-07-20T18:11:03.444Z,20.63
2018-07-20T18:13:33.083Z,21.26
2018-07-20T18:16:02.656Z,21.18
2018-07-20T18:18:31.976Z,21.02
2018-07-20T18:21:01.615Z,20.90
2018-07-20T18:23:31.135Z,20.86
2018-07-20T18:26:00.485Z,20.95
2018-07-20T18:28:29.876Z,20.98
2018-07-20T18:30:59.427Z,21.03
2018-07-20T18:33:28.745Z,21.00
2018-07-20T18:35:58.384Z,20.82
2018-07-20T18:38:28.054Z,20.81
2018-07-20T18:40:57.212Z,20.75
2018-07-20T18:43:26.719Z,20.85
2018-07-20T18:45:56.427Z,20.74
2018-07-20T18:48:25.872Z,20.82
2018-07-20T18:50:55.675Z,20.78
2018-07-20T18:53:25.455Z,20.79
2018-07-20T18:55:54.898Z,20.81
2018-07-20T18:58:24.589Z,20.70
2018-07-20T19:00:53.940Z,20.76
2018-07-20T19:03:23.518Z,20.82
2018-07-20T19:05:53.189Z,20.82
2018-07-20T19:08:22.858Z,20.76
2018-07-20T19:10:52.315Z,20.69
2018-07-20T19:13:21.766Z,20.66
2018-07-20T19:15:51.513Z,20.61
2018-07-20T19:18:20.742Z,20.53
2018-07-20T19:20:50.052Z,20.51
2018-07-20T19:23:19.843Z,20.46
2018-07-20T19:25:48.992Z,20.40
2018-07-20T19:28:18.561Z,20.43
2018-07-20T19:30:48.460Z,20.45
2018-07-20T19:33:17.991Z,20.33
2018-07-20T19:35:47.626Z,20.29
2018-07-20T19:38:17.191Z,20.16
2018-07-20T19:40:46.436Z,20.17
2018-07-20T19:43:16.252Z,20.16
2018-07-20T19:45:45.895Z,20.16
2018-07-20T19:48:15.653Z,20.13
2018-07-20T19:50:45.003Z,19.92
2018-07-20T19:53:14.656Z,19.94
2018-07-20T19:55:44.339Z,20.03
2018-07-20T19:58:13.807Z,19.91
2018-07-20T20:00:43.406Z,20.02
2018-07-20T20:03:12.945Z,20.07
2018-07-20T20:05:42.501Z,20.07
2018-07-20T20:08:12.091Z,20.06
2018-07-20T20:10:41.828Z,19.97
2018-07-20T20:13:11.204Z,20.05
2018-07-20T20:15:40.779Z,19.33
2018-07-20T20:18:10.373Z,19.96
2018-07-20T20:20:39.837Z,19.91
2018-07-20T20:23:09.369Z,19.96
2018-07-20T20:25:38.993Z,19.94
2018-07-20T20:28:08.504Z,19.98
2018-07-20T20:30:38.501Z,19.97
2018-07-20T20:33:08.005Z,19.93
2018-07-20T20:35:37.571Z,19.84
2018-07-20T20:38:07.276Z,19.90
2018-07-20T20:40:36.853Z,19.90
2018-07-20T20:43:06.229Z,19.89
2018-07-20T20:45:35.888Z,19.84
2018-07-20T20:48:06.234Z,19.73
2018-07-20T20:50:35.668Z,19.74
2018-07-20T20:53:05.184Z,19.69
2018-07-20T20:55:34.398Z,19.71
2018-07-20T20:58:03.656Z,19.77
2018-07-20T21:00:33.351Z,19.78
2018-07-20T21:03:03.683Z,19.79
2018-07-20T21:05:33.818Z,19.82
2018-07-20T21:08:04.320Z,19.81
2018-07-20T21:10:33.689Z,19.80
2018-07-20T21:13:03.427Z,19.76
2018-07-20T21:15:33.013Z,19.75
2018-07-20T21:18:02.738Z,19.69
2018-07-20T21:20:32.566Z,19.69
2018-07-20T21:23:02.271Z,19.68
2018-07-20T21:25:31.829Z,19.69
2018-07-20T21:28:01.746Z,19.75
2018-07-20T21:30:31.181Z,19.75
2018-07-20T21:33:00.573Z,19.68
2018-07-20T21:35:30.484Z,19.63
2018-07-20T21:37:59.873Z,19.58
2018-07-20T21:40:29.181Z,19.57
2018-07-20T21:42:59.095Z,19.59
2018-07-20T21:45:28.494Z,19.59
2018-07-20T21:47:57.734Z,19.57
2018-07-20T21:50:27.575Z,18.98
2018-07-20T21:52:57.062Z,19.63
2018-07-20T21:55:26.380Z,19.58
2018-07-20T21:57:56.189Z,19.63
2018-07-20T22:00:25.534Z,19.52
2018-07-20T22:02:55.154Z,19.54
2018-07-20T22:05:25.056Z,19.52
2018-07-20T22:07:54.525Z,19.57
2018-07-20T22:10:24.315Z,19.65
2018-07-20T22:12:54.187Z,19.66
2018-07-20T22:15:23.852Z,19.65
2018-07-20T22:17:53.727Z,19.61
2018-07-20T22:20:23.468Z,19.59
2018-07-20T22:22:52.865Z,19.56
2018-07-20T22:25:22.612Z,19.61
2018-07-20T22:27:52.246Z,19.66
2018-07-20T22:30:21.859Z,19.61
2018-07-20T22:32:51.423Z,19.55
2018-07-20T22:35:21.030Z,19.58
2018-07-20T22:37:50.440Z,19.61
2018-07-20T22:40:19.951Z,19.65
2018-07-20T22:42:49.678Z,19.59
2018-07-20T22:45:19.097Z,19.50
2018-07-20T22:47:48.552Z,19.51
2018-07-20T22:50:18.066Z,19.52
2018-07-20T22:52:47.363Z,19.56
2018-07-20T22:55:17.157Z,19.50
2018-07-20T22:57:46.701Z,19.49
2018-07-20T23:00:16.014Z,19.37
2018-07-20T23:02:45.636Z,19.35
2018-07-20T23:05:15.194Z,19.26
2018-07-20T23:07:44.369Z,19.43
2018-07-20T23:10:14.145Z,19.36
2018-07-20T23:12:43.716Z,19.32
2018-07-20T23:15:13.179Z,19.34
2018-07-20T23:17:42.707Z,19.34
2018-07-20T23:20:12.406Z,19.30
2018-07-20T23:22:42.389Z,19.15
2018-07-20T23:25:11.941Z,19.20
2018-07-20T23:27:41.631Z,19.15
2018-07-20T23:30:11.054Z,19.24
2018-07-20T23:32:40.475Z,19.30
2018-07-20T23:35:10.266Z,19.27
2018-07-20T23:37:39.742Z,19.32
2018-07-20T23:40:08.994Z,19.22
2018-07-20T23:42:38.598Z,19.19
2018-07-20T23:45:08.033Z,19.17
2018-07-20T23:47:37.431Z,19.26
2018-07-20T23:50:07.045Z,19.28
2018-07-20T23:52:36.333Z,19.34
2018-07-20T23:55:05.861Z,19.24
2018-07-20T23:57:35.614Z,19.33
